createdAt,value
2018-03-06T00:00:35.265Z,18.20
2018-03-06T00:03:04.823Z,16.92
2018-03-06T00:05:34.113Z,16.83
2018-03-06T00:08:03.721Z,17.25
2018-03-06T00:10:33.226Z,18.00
2018-03-06T00:13:02.832Z,16.75
2018-03-06T00:15:32.365Z,18.17
2018-03-06T00:18:01.723Z,18.48
2018-03-06T00:20:31.034Z,17.98
2018-03-06T00:23:00.551Z,17.75
2018-03-06T00:25:29.646Z,19.33
2018-03-06T00:27:58.954Z,18.05
2018-03-06T00:30:28.562Z,19.20
2018-03-06T00:32:57.761Z,19.87
2018-03-06T00:35:27.413Z,19.50
2018-03-06T00:37:56.800Z,19.52
2018-03-06T00:40:25.972Z,19.73
2018-03-06T00:42:55.261Z,18.52
2018-03-06T00:45:25.665Z,20.35
2018-03-06T00:47:55.253Z,19.37
2018-03-06T00:50:24.558Z,18.05
2018-03-06T00:52:53.802Z,17.70
2018-03-06T00:55:23.107Z,18.30
2018-03-06T00:57:52.598Z,17.23
2018-03-06T01:00:22.011Z,16.62
2018-03-06T01:02:51.375Z,18.42
2018-03-06T01:05:20.502Z,17.73
2018-03-06T01:07:49.553Z,17.20
2018-03-06T01:10:18.938Z,17.70
2018-03-06T01:12:48.003Z,15.93
2018-03-06T01:15:17.296Z,16.80
2018-03-06T01:17:46.337Z,18.60
2018-03-06T01:20:15.644Z,17.05
2018-03-06T01:22:44.889Z,16.23
2018-03-06T01:25:14.290Z,16.60
2018-03-06T01:27:44.055Z,16.23
2018-03-06T01:30:13.285Z,16.35
2018-03-06T01:32:42.457Z,16.17
2018-03-06T01:35:11.607Z,16.90
2018-03-06T01:37:40.793Z,16.08
2018-03-06T01:40:10.137Z,17.65
2018-03-06T01:42:39.392Z,15.70
2018-03-06T01:45:08.661Z,17.30
2018-03-06T01:47:38.041Z,15.38
2018-03-06T01:50:07.400Z,16.48
2018-03-06T01:52:36.949Z,17.67
2018-03-06T01:55:06.818Z,17.67
2018-03-06T01:57:36.045Z,17.40
2018-03-06T02:00:05.330Z,16.62
2018-03-06T02:02:34.527Z,16.52
2018-03-06T02:05:03.831Z,16.58
2018-03-06T02:07:32.809Z,16.67
2018-03-06T02:10:02.116Z,17.87
2018-03-06T02:12:31.519Z,18.70
2018-03-06T02:15:00.749Z,17.77
2018-03-06T02:17:30.224Z,18.45
2018-03-06T02:19:59.639Z,18.10
2018-03-06T02:22:28.717Z,18.75
2018-03-06T02:24:57.982Z,19.73
2018-03-06T02:27:27.135Z,18.65
2018-03-06T02:29:56.234Z,18.67
2018-03-06T02:32:25.265Z,18.83
2018-03-06T02:34:54.666Z,18.23
2018-03-06T02:37:24.109Z,19.50
2018-03-06T02:39:53.337Z,18.05
2018-03-06T02:42:22.506Z,18.60
2018-03-06T02:44:51.825Z,19.70
2018-03-06T02:47:21.219Z,20.83
2018-03-06T02:49:50.428Z,20.00
2018-03-06T02:52:19.436Z,20.48
2018-03-06T02:54:48.496Z,22.67
2018-03-06T02:57:18.163Z,20.88
2018-03-06T02:59:47.361Z,20.35
2018-03-06T03:02:16.501Z,21.55
2018-03-06T03:04:45.462Z,22.02
2018-03-06T03:07:14.693Z,22.73
2018-03-06T03:09:43.942Z,23.33
2018-03-06T03:12:13.120Z,24.90
2018-03-06T03:14:42.285Z,22.52
2018-03-06T03:17:11.753Z,25.15
2018-03-06T03:19:41.700Z,25.67
2018-03-06T03:22:10.941Z,24.35
2018-03-06T03:24:40.269Z,23.08
2018-03-06T03:27:09.578Z,22.62
2018-03-06T03:29:38.920Z,23.52
2018-03-06T03:32:08.085Z,23.45
2018-03-06T03:34:37.622Z,24.30
2018-03-06T03:37:07.521Z,23.52
2018-03-06T03:39:36.622Z,23.62
2018-03-06T03:42:05.862Z,25.50
2018-03-06T03:44:35.321Z,24.98
2018-03-06T03:47:04.395Z,22.70
2018-03-06T03:49:33.821Z,23.90
2018-03-06T03:52:03.272Z,24.33
2018-03-06T03:54:32.629Z,25.08
2018-03-06T03:57:01.870Z,25.37
2018-03-06T03:59:31.343Z,25.27
2018-03-06T04:02:00.661Z,25.92
2018-03-06T04:04:29.887Z,27.65
2018-03-06T04:06:59.346Z,25.92
2018-03-06T04:09:28.299Z,26.65
2018-03-06T04:11:57.257Z,25.52
2018-03-06T04:14:26.634Z,27.42
2018-03-06T04:16:55.760Z,26.90
2018-03-06T04:19:25.529Z,26.83
2018-03-06T04:21:54.634Z,27.33
2018-03-06T04:24:23.721Z,28.12
2018-03-06T04:26:52.789Z,29.95
2018-03-06T04:29:22.265Z,36.95
2018-03-06T04:31:51.625Z,41.58
2018-03-06T04:34:20.985Z,34.60
2018-03-06T04:36:50.373Z,33.00
2018-03-06T04:39:19.837Z,30.75
2018-03-06T04:41:49.201Z,28.20
2018-03-06T04:44:18.409Z,30.40
2018-03-06T04:46:47.453Z,32.42
2018-03-06T04:49:16.833Z,30.60
2018-03-06T04:51:46.280Z,31.33
2018-03-06T04:54:15.365Z,32.35
2018-03-06T04:56:44.711Z,34.20
2018-03-06T04:59:14.156Z,39.47
2018-03-06T05:01:43.702Z,40.60
2018-03-06T05:04:12.873Z,38.72
2018-03-06T05:06:42.095Z,37.28
2018-03-06T05:09:11.699Z,38.83
2018-03-06T05:11:40.769Z,43.72
2018-03-06T05:14:09.987Z,40.80
2018-03-06T05:16:39.441Z,42.53
2018-03-06T05:19:08.524Z,44.40
2018-03-06T05:21:37.617Z,40.63
2018-03-06T05:24:07.097Z,41.25
2018-03-06T05:26:36.299Z,39.28
2018-03-06T05:29:05.537Z,39.10
2018-03-06T05:31:34.755Z,42.75
2018-03-06T05:34:03.953Z,42.90
2018-03-06T05:36:32.986Z,41.17
2018-03-06T05:39:02.137Z,39.70
2018-03-06T05:41:31.218Z,41.10
2018-03-06T05:44:00.340Z,42.00
2018-03-06T05:46:29.721Z,44.55
2018-03-06T05:48:59.356Z,43.38
2018-03-06T05:51:28.629Z,42.17
2018-03-06T05:53:58.188Z,41.67
2018-03-06T05:56:27.533Z,37.53
2018-03-06T05:58:56.597Z,38.78
2018-03-06T06:01:26.033Z,38.72
2018-03-06T06:03:55.300Z,36.60
2018-03-06T06:06:24.775Z,35.35
2018-03-06T06:08:54.141Z,37.60
2018-03-06T06:11:23.749Z,36.55
2018-03-06T06:13:52.873Z,39.40
2018-03-06T06:16:22.102Z,38.03
2018-03-06T06:18:51.860Z,37.08
2018-03-06T06:21:21.217Z,32.47
2018-03-06T06:23:50.410Z,124.28
2018-03-06T06:26:20.164Z,36.47
2018-03-06T06:28:49.167Z,39.15
2018-03-06T06:31:18.458Z,36.85
2018-03-06T06:33:47.611Z,32.28
2018-03-06T06:36:17.019Z,36.20
2018-03-06T06:38:46.702Z,33.60
2018-03-06T06:41:16.191Z,33.92
2018-03-06T06:43:45.697Z,36.05
2018-03-06T06:46:14.877Z,31.62
2018-03-06T06:48:44.595Z,43.45
2018-03-06T06:51:13.884Z,38.33
2018-03-06T07:08:18.250Z,34.60
2018-03-06T07:10:47.313Z,30.77
2018-03-06T07:13:16.405Z,29.52
2018-03-06T07:15:45.656Z,50.75
2018-03-06T07:18:14.762Z,31.58
2018-03-06T07:20:43.967Z,31.40
2018-03-06T07:23:13.237Z,29.95
2018-03-06T07:25:42.562Z,30.10
2018-03-06T07:28:11.760Z,31.73
2018-03-06T07:30:40.697Z,31.58
2018-03-06T07:33:12.205Z,40.03
2018-03-06T07:35:41.622Z,31.30
2018-03-06T07:38:10.972Z,29.77
2018-03-06T07:40:40.261Z,30.75
2018-03-06T07:43:09.409Z,33.35
2018-03-06T07:45:39.573Z,29.50
2018-03-06T07:48:08.755Z,30.65
2018-03-06T07:50:38.401Z,31.62
2018-03-06T07:53:07.850Z,29.87
2018-03-06T07:55:38.224Z,29.70
2018-03-06T07:58:07.739Z,30.00
2018-03-06T08:00:37.249Z,32.28
2018-03-06T08:03:06.230Z,32.90
2018-03-06T08:05:35.533Z,29.33
2018-03-06T08:08:04.798Z,30.05
2018-03-06T08:10:34.181Z,29.17
2018-03-06T08:13:03.173Z,29.25
2018-03-06T08:15:32.387Z,27.50
2018-03-06T08:18:02.073Z,29.02
2018-03-06T08:20:31.476Z,33.05
2018-03-06T08:23:01.130Z,28.50
2018-03-06T08:25:30.498Z,30.12
2018-03-06T08:27:59.952Z,28.70
2018-03-06T08:30:29.209Z,30.73
2018-03-06T08:32:59.925Z,30.15
2018-03-06T08:35:29.178Z,32.33
2018-03-06T08:37:58.547Z,33.67
2018-03-06T08:40:27.738Z,31.90
2018-03-06T08:42:57.077Z,34.78
2018-03-06T08:45:27.323Z,36.70
2018-03-06T08:47:56.656Z,34.92
2018-03-06T08:50:26.086Z,35.67
2018-03-06T08:52:55.471Z,36.40
2018-03-06T08:55:24.870Z,33.08
2018-03-06T08:57:54.337Z,33.85
2018-03-06T09:00:23.671Z,36.03
2018-03-06T09:02:53.529Z,38.47
2018-03-06T09:05:22.894Z,36.40
2018-03-06T09:07:52.099Z,35.67
2018-03-06T09:10:21.378Z,35.47
2018-03-06T09:12:50.549Z,33.15
2018-03-06T09:15:19.859Z,32.75
2018-03-06T09:17:49.090Z,29.12
2018-03-06T09:20:18.282Z,29.10
2018-03-06T09:22:47.317Z,30.65
2018-03-06T09:25:16.526Z,28.48
2018-03-06T09:27:45.779Z,29.37
2018-03-06T09:30:15.073Z,31.35
2018-03-06T09:32:44.386Z,35.50
2018-03-06T09:35:13.628Z,32.95
2018-03-06T09:37:42.868Z,29.55
2018-03-06T09:40:11.877Z,33.80
2018-03-06T09:42:41.223Z,30.80
2018-03-06T09:45:10.983Z,32.87
2018-03-06T09:47:40.273Z,24.40
2018-03-06T09:50:09.681Z,28.98
2018-03-06T09:52:38.984Z,29.17
2018-03-06T09:55:08.315Z,26.02
2018-03-06T09:57:37.786Z,29.95
2018-03-06T10:00:07.303Z,33.72
2018-03-06T10:02:36.597Z,31.45
2018-03-06T10:18:15.058Z,23.93
2018-03-06T10:20:44.358Z,28.37
2018-03-06T10:23:13.689Z,25.40
2018-03-06T10:25:43.053Z,26.67
2018-03-06T10:28:12.566Z,23.43
2018-03-06T10:30:41.865Z,24.03
2018-03-06T10:33:11.337Z,23.40
2018-03-06T10:35:40.712Z,33.83
2018-03-06T10:38:09.865Z,27.07
2018-03-06T10:40:39.065Z,28.73
2018-03-06T10:43:08.081Z,30.33
2018-03-06T10:45:37.253Z,30.00
2018-03-06T10:48:06.457Z,31.87
2018-03-06T10:50:35.868Z,35.40
2018-03-06T10:53:05.512Z,34.70
2018-03-06T10:55:34.651Z,38.23
2018-03-06T10:58:03.999Z,43.67
2018-03-06T11:00:38.617Z,40.70
2018-03-06T11:03:07.834Z,49.73
2018-03-06T11:05:37.109Z,53.30
2018-03-06T11:08:06.409Z,43.40
2018-03-06T11:10:35.847Z,44.00
2018-03-06T11:13:04.957Z,40.10
2018-03-06T11:15:34.498Z,40.13
2018-03-06T11:18:03.819Z,37.33
2018-03-06T11:20:33.569Z,39.87
2018-03-06T11:23:03.013Z,28.77
2018-03-06T11:25:32.119Z,31.67
2018-03-06T11:28:01.611Z,32.93
2018-03-06T11:30:30.974Z,26.50
2018-03-06T11:33:00.409Z,28.23
2018-03-06T11:35:29.957Z,27.03
2018-03-06T11:37:59.663Z,29.37
2018-03-06T11:40:28.938Z,27.73
2018-03-06T11:42:58.045Z,24.60
2018-03-06T11:45:27.291Z,23.67
2018-03-06T11:47:56.673Z,23.47
2018-03-06T11:50:26.257Z,25.03
2018-03-06T11:52:55.898Z,26.90
2018-03-06T11:55:25.361Z,31.40
2018-03-06T11:57:55.221Z,24.83
2018-03-06T12:00:24.697Z,27.30
2018-03-06T12:02:53.982Z,27.97
2018-03-06T12:05:23.291Z,37.30
2018-03-06T12:07:52.895Z,32.07
2018-03-06T12:10:22.801Z,32.43
2018-03-06T12:12:52.409Z,40.27
2018-03-06T12:15:21.811Z,43.23
2018-03-06T12:17:51.261Z,44.70
2018-03-06T12:20:20.621Z,39.97
2018-03-06T12:22:49.761Z,41.73
2018-03-06T12:25:19.367Z,38.67
2018-03-06T12:27:48.869Z,38.17
2018-03-06T12:30:17.939Z,33.70
2018-03-06T12:32:47.139Z,32.03
2018-03-06T12:35:16.629Z,31.17
2018-03-06T12:37:45.973Z,33.80
2018-03-06T12:40:16.105Z,31.47
2018-03-06T12:42:45.538Z,32.17
2018-03-06T12:45:14.822Z,27.93
2018-03-06T12:47:44.113Z,24.53
2018-03-06T12:50:13.466Z,22.17
2018-03-06T12:52:42.861Z,21.80
2018-03-06T12:55:12.119Z,20.07
2018-03-06T12:57:41.226Z,19.13
2018-03-06T13:00:10.605Z,17.50
2018-03-06T13:02:40.005Z,14.93
2018-03-06T13:05:09.262Z,15.37
2018-03-06T13:07:38.939Z,15.97
2018-03-06T13:10:08.481Z,13.23
2018-03-06T13:12:37.714Z,12.80
2018-03-06T13:15:07.242Z,11.57
2018-03-06T13:17:36.525Z,10.97
2018-03-06T13:20:05.889Z,11.27
2018-03-06T13:22:35.289Z,10.00
2018-03-06T13:25:04.701Z,10.07
2018-03-06T13:27:34.033Z,11.03
2018-03-06T13:30:03.701Z,10.30
2018-03-06T13:32:32.857Z,10.90
2018-03-06T13:35:02.130Z,12.50
2018-03-06T13:37:31.296Z,15.67
2018-03-06T13:40:00.701Z,12.80
2018-03-06T13:42:30.013Z,10.93
2018-03-06T13:44:59.347Z,11.37
2018-03-06T13:47:28.780Z,11.63
2018-03-06T13:49:58.237Z,10.90
2018-03-06T13:52:27.617Z,11.13
2018-03-06T13:54:56.913Z,11.33
2018-03-06T13:57:27.092Z,12.37
2018-03-06T13:59:56.477Z,11.43
2018-03-06T14:02:25.679Z,10.60
2018-03-06T14:04:54.669Z,14.80
2018-03-06T14:07:25.677Z,15.03
2018-03-06T14:09:54.765Z,16.47
2018-03-06T14:12:23.965Z,15.97
2018-03-06T14:14:53.269Z,16.93
2018-03-06T14:17:22.481Z,15.83
2018-03-06T14:19:51.976Z,17.20
2018-03-06T14:22:21.307Z,13.50
2018-03-06T14:24:50.428Z,16.47
2018-03-06T14:27:19.617Z,16.03
2018-03-06T14:29:48.967Z,15.77
2018-03-06T14:32:18.525Z,13.00
2018-03-06T14:34:48.285Z,14.50
2018-03-06T14:37:17.334Z,16.07
2018-03-06T14:39:46.477Z,17.27
2018-03-06T14:42:15.677Z,19.47
2018-03-06T14:44:44.932Z,19.17
2018-03-06T14:47:14.195Z,20.63
2018-03-06T14:49:43.685Z,30.13
2018-03-06T14:52:12.779Z,29.43
2018-03-06T14:54:41.722Z,24.17
2018-03-06T14:57:10.781Z,24.07
2018-03-06T14:59:40.118Z,24.73
2018-03-06T15:02:09.463Z,24.60
2018-03-06T15:04:38.869Z,27.07
2018-03-06T15:07:08.150Z,25.63
2018-03-06T15:09:37.391Z,26.33
2018-03-06T15:12:06.773Z,26.23
2018-03-06T15:14:36.295Z,26.80
2018-03-06T15:17:05.581Z,26.93
2018-03-06T15:19:35.234Z,27.10
2018-03-06T15:22:04.955Z,28.03
2018-03-06T15:24:34.458Z,29.07
2018-03-06T15:27:03.731Z,29.17
2018-03-06T15:29:33.209Z,26.73
2018-03-06T15:32:02.827Z,27.07
2018-03-06T15:34:32.057Z,26.77
2018-03-06T15:37:01.300Z,26.53
2018-03-06T15:39:30.441Z,28.17
2018-03-06T15:41:59.821Z,27.30
2018-03-06T15:44:29.217Z,27.30
2018-03-06T15:46:58.977Z,27.60
2018-03-06T15:49:28.645Z,27.13
2018-03-06T15:51:58.345Z,26.77
2018-03-06T15:54:27.653Z,27.80
2018-03-06T15:56:56.947Z,26.43
2018-03-06T15:59:26.679Z,27.63
2018-03-06T16:01:56.270Z,28.33
2018-03-06T16:04:25.787Z,27.87
2018-03-06T16:06:55.222Z,28.40
2018-03-06T16:09:24.840Z,29.57
2018-03-06T16:11:54.327Z,28.50
2018-03-06T16:14:23.494Z,29.97
2018-03-06T16:16:52.992Z,30.00
2018-03-06T16:19:22.621Z,31.23
2018-03-06T16:21:52.023Z,30.48
2018-03-06T16:24:21.628Z,31.05
2018-03-06T16:26:51.283Z,32.47
2018-03-06T16:29:20.634Z,31.15
2018-03-06T16:31:50.006Z,31.42
2018-03-06T16:34:19.411Z,31.90
2018-03-06T16:36:48.602Z,33.80
2018-03-06T16:39:17.741Z,32.15
2018-03-06T16:41:46.970Z,33.33
2018-03-06T16:44:16.461Z,36.17
2018-03-06T16:46:45.515Z,52.13
2018-03-06T16:49:14.789Z,46.28
2018-03-06T16:51:44.442Z,42.90
2018-03-06T16:54:13.631Z,44.05
2018-03-06T16:56:42.806Z,48.33
2018-03-06T16:59:12.173Z,44.22
2018-03-06T17:01:41.719Z,44.58
2018-03-06T17:04:10.974Z,41.75
2018-03-06T17:06:40.444Z,42.92
2018-03-06T17:09:09.551Z,40.12
2018-03-06T17:11:38.827Z,40.75
2018-03-06T17:14:08.182Z,39.63
2018-03-06T17:16:38.378Z,43.22
2018-03-06T17:19:07.869Z,45.63
2018-03-06T17:21:37.471Z,47.40
2018-03-06T17:24:06.560Z,43.72
2018-03-06T17:26:35.837Z,42.30
2018-03-06T17:29:05.115Z,46.85
2018-03-06T17:31:34.618Z,58.55
2018-03-06T17:34:03.737Z,40.83
2018-03-06T17:36:33.339Z,43.28
2018-03-06T17:39:02.765Z,42.10
2018-03-06T17:41:31.955Z,40.17
2018-03-06T17:44:01.746Z,38.72
2018-03-06T17:46:31.076Z,40.55
2018-03-06T17:49:00.558Z,42.25
2018-03-06T17:51:30.466Z,42.88
2018-03-06T17:54:00.144Z,40.47
2018-03-06T17:56:30.255Z,42.70
2018-03-06T17:58:59.481Z,38.88
2018-03-06T18:01:29.054Z,43.05
2018-03-06T18:03:58.177Z,41.70
2018-03-06T18:06:27.802Z,44.25
2018-03-06T18:08:57.318Z,43.63
2018-03-06T18:11:26.665Z,43.90
2018-03-06T18:13:55.965Z,44.45
2018-03-06T18:16:25.577Z,45.97
2018-03-06T18:18:54.726Z,60.12
2018-03-06T18:21:24.145Z,90.22
2018-03-06T18:23:53.101Z,100.32
2018-03-06T18:26:22.379Z,107.15
2018-03-06T18:28:52.414Z,103.35
2018-03-06T18:31:21.725Z,81.05
2018-03-06T18:33:50.926Z,71.60
2018-03-06T18:36:20.322Z,142.57
2018-03-06T18:38:49.707Z,96.87
2018-03-06T18:41:19.293Z,95.43
2018-03-06T18:43:48.811Z,96.18
2018-03-06T18:46:18.312Z,98.75
2018-03-06T18:48:47.814Z,112.22
2018-03-06T18:51:17.009Z,164.45
2018-03-06T18:53:46.269Z,163.25
2018-03-06T18:56:15.597Z,129.00
2018-03-06T18:58:44.578Z,129.80
2018-03-06T19:04:30.477Z,87.93
2018-03-06T19:07:08.631Z,109.20
2018-03-06T19:09:37.573Z,113.10
2018-03-06T19:12:06.715Z,101.00
2018-03-06T19:14:35.960Z,109.32
2018-03-06T19:17:05.187Z,105.85
2018-03-06T19:19:34.389Z,140.07
2018-03-06T19:22:03.503Z,102.70
2018-03-06T19:24:32.741Z,98.93
2018-03-06T19:27:02.091Z,121.40
2018-03-06T19:29:31.509Z,127.05
2018-03-06T19:32:00.766Z,104.43
2018-03-06T19:34:30.212Z,96.85
2018-03-06T19:36:59.518Z,96.43
2018-03-06T19:39:28.893Z,98.60
2018-03-06T19:41:58.189Z,91.97
2018-03-06T19:44:27.850Z,84.50
2018-03-06T19:46:57.025Z,84.93
2018-03-06T19:49:26.128Z,82.93
2018-03-06T19:51:55.397Z,87.20
2018-03-06T19:54:24.457Z,94.82
2018-03-06T19:56:53.634Z,93.10
2018-03-06T19:59:22.581Z,88.68
2018-03-06T20:01:51.715Z,78.00
2018-03-06T20:04:20.926Z,80.05
2018-03-06T20:06:50.222Z,81.20
2018-03-06T20:09:19.343Z,75.18
2018-03-06T20:11:48.614Z,73.00
2018-03-06T20:14:23.550Z,71.60
2018-03-06T20:16:52.531Z,77.25
2018-03-06T20:19:27.820Z,81.00
2018-03-06T20:21:57.130Z,166.93
2018-03-06T20:24:32.125Z,76.22
2018-03-06T20:27:01.298Z,82.03
2018-03-06T20:29:30.501Z,89.57
2018-03-06T20:32:05.250Z,81.75
2018-03-06T20:34:34.743Z,95.87
2018-03-06T20:37:04.238Z,92.05
2018-03-06T20:39:39.127Z,90.62
2018-03-06T20:42:08.369Z,89.57
2018-03-06T20:44:37.794Z,96.65
2018-03-06T20:47:12.591Z,128.60
2018-03-06T20:49:41.706Z,90.03
2018-03-06T20:52:11.286Z,89.62
2018-03-06T20:54:46.173Z,89.00
2018-03-06T20:57:15.453Z,89.00
2018-03-06T20:59:44.675Z,86.32
2018-03-06T21:02:14.158Z,102.60
2018-03-06T21:04:43.553Z,91.30
2018-03-06T21:07:12.847Z,88.15
2018-03-06T21:09:42.271Z,80.15
2018-03-06T21:12:11.358Z,98.28
2018-03-06T21:14:40.706Z,111.32
2018-03-06T21:17:10.254Z,88.28
2018-03-06T21:19:39.901Z,85.35
2018-03-06T21:22:09.161Z,82.82
2018-03-06T21:24:39.030Z,74.20
2018-03-06T21:27:08.681Z,84.75
2018-03-06T21:29:38.100Z,76.80
2018-03-06T21:32:07.565Z,74.87
2018-03-06T21:34:37.073Z,75.15
2018-03-06T21:37:06.361Z,81.03
2018-03-06T21:39:35.551Z,80.35
2018-03-06T21:42:04.820Z,79.35
2018-03-06T21:44:33.978Z,79.40
2018-03-06T21:47:03.269Z,77.82
2018-03-06T21:49:32.401Z,75.25
2018-03-06T21:52:01.464Z,81.75
2018-03-06T21:54:30.695Z,77.30
2018-03-06T21:56:59.770Z,80.38
2018-03-06T21:59:28.980Z,126.28
2018-03-06T22:01:58.291Z,100.55
2018-03-06T22:04:27.601Z,94.07
2018-03-06T22:06:56.924Z,99.37
2018-03-06T22:09:26.140Z,98.40
2018-03-06T22:11:55.503Z,76.00
2018-03-06T22:14:24.585Z,87.25
2018-03-06T22:16:53.730Z,89.45
2018-03-06T22:19:22.934Z,85.47
2018-03-06T22:21:52.277Z,91.90
2018-03-06T22:24:21.521Z,92.28
2018-03-06T22:26:50.916Z,90.70
2018-03-06T22:29:20.039Z,92.00
2018-03-06T22:31:49.218Z,85.15
2018-03-06T22:34:18.636Z,84.82
2018-03-06T22:36:48.188Z,86.75
2018-03-06T22:39:17.803Z,87.25
2018-03-06T22:41:47.401Z,89.70
2018-03-06T22:44:16.640Z,99.55
2018-03-06T22:46:46.223Z,111.25
2018-03-06T22:49:15.489Z,108.97
2018-03-06T22:51:44.544Z,111.85
2018-03-06T22:54:13.823Z,101.80
2018-03-06T22:56:43.205Z,103.93
2018-03-06T22:59:12.310Z,112.05
2018-03-06T23:01:41.485Z,92.45
2018-03-06T23:04:10.797Z,91.55
2018-03-06T23:06:40.033Z,92.75
2018-03-06T23:09:09.404Z,91.87
2018-03-06T23:11:38.705Z,94.57
2018-03-06T23:14:07.813Z,84.10
2018-03-06T23:16:37.101Z,81.65
2018-03-06T23:19:06.343Z,83.28
2018-03-06T23:21:35.493Z,85.70
2018-03-06T23:24:04.897Z,89.25
2018-03-06T23:26:34.505Z,95.12
2018-03-06T23:29:04.174Z,109.65
2018-03-06T23:31:33.313Z,106.53
2018-03-06T23:34:02.739Z,103.90
2018-03-06T23:36:31.883Z,107.07
2018-03-06T23:39:00.973Z,111.32
2018-03-06T23:41:30.209Z,117.43
2018-03-06T23:43:59.667Z,112.05
2018-03-06T23:46:28.955Z,109.90
2018-03-06T23:48:58.161Z,113.20
2018-03-06T23:51:27.547Z,120.22
2018-03-06T23:53:56.926Z,108.57
2018-03-06T23:56:26.217Z,114.80
2018-03-06T23:58:55.929Z,116.93
